ěÝzenÝ letovÚho provozu ╚eskÚ republiky
Letiste: LKPD Aktualizace: 10.05.2021 03:26:25  UTC
 METAR LKPD 10.05. 03:30 ...
METAR LKPD 100330Z 07007KT CAVOK 14/01 Q1010 RMK BLACK=